Time;durP1;ratioP1;P1;durP2;ratioP2;P2;SDS_P1;SDS_P2;PMS_P1;PMS_P2;Temp;Humidity;BMP_temperature;BMP_pressure;BME280_temperature;BME280_humidity;BME280_pressure;Samples;Min_cycle;Max_cycle;Signal;HPM_P1;HPM_P2
2022/02/20 00:01:13;;;;;;;12.48;3.08;;;;;;;;;;5013277;28;20021;-76
2022/02/20 00:03:40;;;;;;;9.05;2.40;;;;;;;;;;5014153;28;20125;-76
2022/02/20 00:06:06;;;;;;;10.50;3.78;;;;;;;;;;5013869;28;20018;-76
2022/02/20 00:08:32;;;;;;;9.43;2.53;;;;;;;;;;5031367;28;20033;-76
2022/02/20 00:10:58;;;;;;;8.57;2.60;;;;;;;;;;5030965;28;20052;-76
2022/02/20 00:13:24;;;;;;;8.45;2.90;;;;;;;;;;5031199;28;20032;-76
2022/02/20 00:15:50;;;;;;;9.80;3.00;;;;;;;;;;5031146;28;20021;-76
2022/02/20 00:18:16;;;;;;;8.00;2.78;;;;;;;;;;5030530;28;20105;-76
2022/02/20 00:20:45;;;;;;;12.27;3.30;;;;;;;;;;5009900;28;20037;-77
2022/02/20 00:23:12;;;;;;;11.52;3.03;;;;;;;;;;5027114;28;20493;-76
2022/02/20 00:25:39;;;;;;;9.32;2.92;;;;;;;;;;5013895;28;20453;-76
2022/02/20 00:28:05;;;;;;;7.43;2.50;;;;;;;;;;5013003;28;20448;-76
2022/02/20 00:30:31;;;;;;;8.70;3.28;;;;;;;;;;5031166;28;20021;-76
2022/02/20 00:33:00;;;;;;;9.55;2.95;;;;;;;;;;5031183;28;20022;-76
2022/02/20 00:35:27;;;;;;;13.05;3.00;;;;;;;;;;5013406;28;20448;-76
2022/02/20 00:37:53;;;;;;;8.93;2.75;;;;;;;;;;5031116;28;20500;-76
2022/02/20 00:40:19;;;;;;;5.95;2.25;;;;;;;;;;5009417;28;20073;-76
2022/02/20 00:42:45;;;;;;;10.02;3.03;;;;;;;;;;5011284;28;20038;-76
2022/02/20 00:45:11;;;;;;;9.43;2.40;;;;;;;;;;5010054;28;20493;-77
2022/02/20 00:47:37;;;;;;;11.07;3.17;;;;;;;;;;5010534;28;20030;-76
2022/02/20 00:50:03;;;;;;;11.90;3.05;;;;;;;;;;5009909;28;20033;-77
2022/02/20 00:52:29;;;;;;;10.27;3.13;;;;;;;;;;5010002;28;20057;-76
2022/02/20 00:54:55;;;;;;;11.55;3.28;;;;;;;;;;5009923;28;20025;-76
2022/02/20 00:57:22;;;;;;;9.48;2.38;;;;;;;;;;5011772;28;20029;-76
2022/02/20 00:59:48;;;;;;;10.50;2.95;;;;;;;;;;5014967;28;20417;-76
2022/02/20 01:02:14;;;;;;;12.27;2.67;;;;;;;;;;5013303;28;20038;-76
2022/02/20 01:04:40;;;;;;;9.73;2.65;;;;;;;;;;5014902;28;20018;-76
2022/02/20 01:07:07;;;;;;;9.98;2.35;;;;;;;;;;5014552;28;20038;-76
2022/02/20 01:09:33;;;;;;;10.48;2.97;;;;;;;;;;5014497;28;20049;-76
2022/02/20 01:11:59;;;;;;;12.52;3.55;;;;;;;;;;5014468;28;20022;-76
2022/02/20 01:14:25;;;;;;;12.32;2.72;;;;;;;;;;5013183;28;20022;-76
2022/02/20 01:16:51;;;;;;;11.10;3.00;;;;;;;;;;5026257;28;20124;-77
2022/02/20 01:19:17;;;;;;;6.63;2.63;;;;;;;;;;5034193;28;20045;-76
2022/02/20 01:21:43;;;;;;;8.25;2.50;;;;;;;;;;5034058;28;20025;-76
2022/02/20 01:24:10;;;;;;;9.02;2.97;;;;;;;;;;5034195;28;20040;-76
2022/02/20 01:26:36;;;;;;;9.63;2.75;;;;;;;;;;5016267;28;20026;-76
2022/02/20 01:29:03;;;;;;;11.05;2.85;;;;;;;;;;5033961;28;20060;-76
2022/02/20 01:31:29;;;;;;;11.75;3.25;;;;;;;;;;5033557;28;20501;-76
2022/02/20 01:33:55;;;;;;;8.82;3.13;;;;;;;;;;5033786;28;20025;-76
2022/02/20 01:36:21;;;;;;;10.48;2.78;;;;;;;;;;5012255;28;20037;-76
2022/02/20 01:38:47;;;;;;;12.70;3.97;;;;;;;;;;5013562;28;20034;-76
2022/02/20 01:41:16;;;;;;;9.25;2.72;;;;;;;;;;5013866;28;20028;-76
2022/02/20 01:43:42;;;;;;;9.68;2.50;;;;;;;;;;5013589;28;20473;-76
2022/02/20 01:46:08;;;;;;;9.48;2.92;;;;;;;;;;5012593;28;20080;-76
2022/02/20 01:48:35;;;;;;;12.50;3.60;;;;;;;;;;5012434;28;20034;-76
2022/02/20 01:51:01;;;;;;;11.95;3.67;;;;;;;;;;5015806;28;20053;-76
2022/02/20 01:53:27;;;;;;;10.18;2.83;;;;;;;;;;5033379;28;20026;-76
2022/02/20 01:55:53;;;;;;;10.52;2.58;;;;;;;;;;5033346;28;20025;-76
2022/02/20 01:58:20;;;;;;;8.65;2.72;;;;;;;;;;5033382;28;20053;-76
2022/02/20 02:00:46;;;;;;;12.77;2.80;;;;;;;;;;5015521;28;20445;-76
2022/02/20 02:03:16;;;;;;;9.93;3.42;;;;;;;;;;5033506;28;20045;-76
2022/02/20 02:05:43;;;;;;;11.88;2.85;;;;;;;;;;5033584;28;20021;-76
2022/02/20 02:08:09;;;;;;;11.95;3.40;;;;;;;;;;5033129;28;20029;-76
2022/02/20 02:10:35;;;;;;;13.35;3.67;;;;;;;;;;5033158;28;20074;-76
2022/02/20 02:13:01;;;;;;;11.38;2.95;;;;;;;;;;5033062;28;20108;-76
2022/02/20 02:15:27;;;;;;;11.70;3.55;;;;;;;;;;5032575;28;20025;-76
2022/02/20 02:17:53;;;;;;;13.45;3.22;;;;;;;;;;5033073;28;20026;-76
2022/02/20 02:20:19;;;;;;;13.40;3.33;;;;;;;;;;5032976;28;20025;-76
2022/02/20 02:22:45;;;;;;;11.93;2.95;;;;;;;;;;5032806;28;20030;-76
2022/02/20 02:25:11;;;;;;;14.63;3.08;;;;;;;;;;5033261;28;20032;-76
2022/02/20 02:27:37;;;;;;;13.43;3.13;;;;;;;;;;5032820;28;20025;-76
2022/02/20 02:30:05;;;;;;;11.80;2.85;;;;;;;;;;5032760;28;20079;-76
2022/02/20 02:32:31;;;;;;;11.27;3.00;;;;;;;;;;5014961;28;20458;-76
2022/02/20 02:34:57;;;;;;;11.15;3.05;;;;;;;;;;5032650;28;20025;-76
2022/02/20 02:37:23;;;;;;;12.75;3.45;;;;;;;;;;5014799;28;20022;-76
2022/02/20 02:39:49;;;;;;;11.20;3.28;;;;;;;;;;5032364;28;20494;-76
2022/02/20 02:42:15;;;;;;;14.85;2.92;;;;;;;;;;5014758;28;20040;-76
2022/02/20 02:44:41;;;;;;;12.98;3.13;;;;;;;;;;5015087;28;20048;-76
2022/02/20 02:47:07;;;;;;;13.70;3.33;;;;;;;;;;5032461;28;20032;-76
2022/02/20 02:49:34;;;;;;;11.85;3.30;;;;;;;;;;5032469;28;20851;-76
2022/02/20 02:52:00;;;;;;;16.05;3.78;;;;;;;;;;5014128;28;20025;-76
2022/02/20 02:54:26;;;;;;;14.07;3.40;;;;;;;;;;5032317;28;20033;-76
2022/02/20 02:56:52;;;;;;;12.10;3.17;;;;;;;;;;5014310;28;20520;-76
2022/02/20 02:59:18;;;;;;;9.88;3.13;;;;;;;;;;5032332;28;20104;-76
2022/02/20 03:01:45;;;;;;;10.90;2.70;;;;;;;;;;5032171;28;20034;-76
2022/02/20 03:04:12;;;;;;;12.75;3.47;;;;;;;;;;5032394;28;20504;-76
2022/02/20 03:06:38;;;;;;;13.32;3.00;;;;;;;;;;5032152;28;20481;-76
2022/02/20 03:09:06;;;;;;;15.57;3.85;;;;;;;;;;5014428;28;20036;-76
2022/02/20 03:11:32;;;;;;;14.30;4.07;;;;;;;;;;5014301;28;20036;-76
2022/02/20 03:13:58;;;;;;;10.90;3.40;;;;;;;;;;5014328;28;20033;-76
2022/02/20 03:16:24;;;;;;;13.15;3.60;;;;;;;;;;5031263;28;20424;-76
2022/02/20 03:18:50;;;;;;;11.38;3.10;;;;;;;;;;5031884;28;20027;-76
2022/02/20 03:21:16;;;;;;;17.23;4.40;;;;;;;;;;5013503;28;20500;-76
2022/02/20 03:23:43;;;;;;;12.32;3.08;;;;;;;;;;5014067;28;20029;-76
2022/02/20 03:26:08;;;;;;;10.65;3.08;;;;;;;;;;5013807;28;20048;-75
2022/02/20 03:28:35;;;;;;;11.60;3.08;;;;;;;;;;5013811;28;20029;-76
2022/02/20 03:31:01;;;;;;;12.30;3.55;;;;;;;;;;5031745;28;20374;-76
2022/02/20 03:33:28;;;;;;;10.07;2.88;;;;;;;;;;5031686;28;20029;-76
2022/02/20 03:35:54;;;;;;;12.18;3.30;;;;;;;;;;5031717;28;20032;-76
2022/02/20 03:38:20;;;;;;;12.00;3.33;;;;;;;;;;5031707;28;20026;-76
2022/02/20 03:40:46;;;;;;;15.98;3.95;;;;;;;;;;5031561;28;20030;-76
2022/02/20 03:43:12;;;;;;;9.80;3.40;;;;;;;;;;5031891;28;20120;-76
2022/02/20 03:45:38;;;;;;;14.05;2.97;;;;;;;;;;5031595;28;20101;-76
2022/02/20 03:48:05;;;;;;;15.93;4.03;;;;;;;;;;5013753;28;20513;-76
2022/02/20 03:50:31;;;;;;;11.63;3.10;;;;;;;;;;5014074;28;20569;-76
2022/02/20 03:52:57;;;;;;;12.68;3.67;;;;;;;;;;5031555;28;20061;-77
2022/02/20 03:55:24;;;;;;;12.90;3.53;;;;;;;;;;5031415;28;20060;-76
2022/02/20 03:57:50;;;;;;;14.57;3.53;;;;;;;;;;5031544;28;20040;-77
2022/02/20 04:00:16;;;;;;;10.45;3.10;;;;;;;;;;5013753;28;20022;-76
2022/02/20 04:02:42;;;;;;;10.98;3.20;;;;;;;;;;5013802;28;20063;-77
2022/02/20 04:05:09;;;;;;;11.70;2.95;;;;;;;;;;5031351;28;20084;-78
2022/02/20 04:07:35;;;;;;;10.73;2.95;;;;;;;;;;5010140;28;20073;-77
2022/02/20 04:10:02;;;;;;;11.60;2.92;;;;;;;;;;5011726;28;20022;-77
2022/02/20 04:12:29;;;;;;;14.40;3.17;;;;;;;;;;5020676;28;20033;-78
2022/02/20 04:14:55;;;;;;;13.95;3.70;;;;;;;;;;5030339;28;20017;-76
2022/02/20 04:17:21;;;;;;;10.52;3.33;;;;;;;;;;5012468;28;20386;-77
2022/02/20 04:19:48;;;;;;;11.75;3.00;;;;;;;;;;5029276;28;20108;-76
2022/02/20 04:22:15;;;;;;;13.40;3.80;;;;;;;;;;5029397;28;20045;-77
2022/02/20 04:24:41;;;;;;;13.20;3.13;;;;;;;;;;5031089;28;20148;-75
2022/02/20 04:27:08;;;;;;;14.15;3.35;;;;;;;;;;5031020;28;20037;-76
2022/02/20 04:29:34;;;;;;;11.68;3.13;;;;;;;;;;5031175;28;20036;-75
2022/02/20 04:32:00;;;;;;;12.80;3.05;;;;;;;;;;5032624;28;20493;-76
2022/02/20 04:34:26;;;;;;;14.50;3.60;;;;;;;;;;5035022;28;20021;-76
2022/02/20 04:36:52;;;;;;;10.50;2.72;;;;;;;;;;5034762;28;20042;-76
2022/02/20 04:39:18;;;;;;;12.50;3.78;;;;;;;;;;5034662;28;20065;-75
2022/02/20 04:41:44;;;;;;;12.55;3.50;;;;;;;;;;5034959;28;20072;-75
2022/02/20 04:44:11;;;;;;;14.20;3.58;;;;;;;;;;5034508;28;20075;-76
2022/02/20 04:46:37;;;;;;;14.13;3.20;;;;;;;;;;5034720;28;20029;-76
2022/02/20 04:49:04;;;;;;;10.98;3.10;;;;;;;;;;5034607;28;20125;-76
2022/02/20 04:51:30;;;;;;;10.07;2.58;;;;;;;;;;5034601;28;20025;-76
2022/02/20 04:53:56;;;;;;;13.80;3.15;;;;;;;;;;5034396;28;20080;-76
2022/02/20 04:56:22;;;;;;;14.63;3.55;;;;;;;;;;5034592;28;20496;-76
2022/02/20 04:58:48;;;;;;;13.55;3.20;;;;;;;;;;5016483;28;20075;-75
2022/02/20 05:01:14;;;;;;;11.60;3.13;;;;;;;;;;5034699;28;20034;-76
2022/02/20 05:03:40;;;;;;;12.95;3.25;;;;;;;;;;5016468;28;20512;-75
2022/02/20 05:06:06;;;;;;;11.00;3.10;;;;;;;;;;5031549;28;20036;-76
2022/02/20 05:08:32;;;;;;;11.13;3.03;;;;;;;;;;5010396;28;20598;-76
2022/02/20 05:10:58;;;;;;;9.88;2.70;;;;;;;;;;5013235;28;20026;-76
2022/02/20 05:13:24;;;;;;;10.05;2.72;;;;;;;;;;5021232;28;20021;-76
2022/02/20 05:15:50;;;;;;;10.95;2.90;;;;;;;;;;5014328;28;20041;-76
2022/02/20 05:18:17;;;;;;;12.20;2.80;;;;;;;;;;5014773;28;20050;-76
2022/02/20 05:20:43;;;;;;;12.05;3.28;;;;;;;;;;5025608;28;20040;-76
2022/02/20 05:23:09;;;;;;;10.57;2.90;;;;;;;;;;5033966;28;20060;-75
2022/02/20 05:25:36;;;;;;;9.55;2.42;;;;;;;;;;5023949;28;20101;-75
2022/02/20 05:28:02;;;;;;;10.02;2.85;;;;;;;;;;5029225;28;20079;-76
2022/02/20 05:30:28;;;;;;;10.70;2.55;;;;;;;;;;5031663;28;20030;-76
2022/02/20 05:32:54;;;;;;;12.93;3.03;;;;;;;;;;5017938;28;20374;-76
2022/02/20 05:35:20;;;;;;;12.38;2.95;;;;;;;;;;5031390;28;20061;-76
2022/02/20 05:37:50;;;;;;;11.60;2.85;;;;;;;;;;5034077;28;20022;-76
2022/02/20 05:40:18;;;;;;;9.82;2.83;;;;;;;;;;5013738;28;20026;-76
2022/02/20 05:42:44;;;;;;;7.65;3.13;;;;;;;;;;5031047;28;20042;-75
2022/02/20 05:45:10;;;;;;;11.90;2.58;;;;;;;;;;5014172;28;20420;-75
2022/02/20 05:47:37;;;;;;;8.68;2.20;;;;;;;;;;5015872;28;20038;-76
2022/02/20 05:50:04;;;;;;;12.15;2.90;;;;;;;;;;5031653;28;20374;-76
2022/02/20 05:52:30;;;;;;;10.25;3.28;;;;;;;;;;5033551;28;20119;-76
2022/02/20 05:54:56;;;;;;;9.57;2.65;;;;;;;;;;5027354;28;20022;-75
2022/02/20 05:57:22;;;;;;;8.98;2.13;;;;;;;;;;5013615;28;20037;-76
2022/02/20 05:59:48;;;;;;;9.27;2.25;;;;;;;;;;5015058;28;20430;-75
2022/02/20 06:02:14;;;;;;;8.80;2.30;;;;;;;;;;5015088;28;20052;-76
2022/02/20 06:04:40;;;;;;;8.70;2.70;;;;;;;;;;4998725;28;20076;-76
2022/02/20 06:07:06;;;;;;;9.23;2.38;;;;;;;;;;5012179;28;20026;-76
2022/02/20 06:09:32;;;;;;;6.95;2.33;;;;;;;;;;5014046;28;20029;-76
2022/02/20 06:11:58;;;;;;;10.18;2.65;;;;;;;;;;5013257;28;20433;-76
2022/02/20 06:14:24;;;;;;;9.35;2.33;;;;;;;;;;5013054;28;20026;-75
2022/02/20 06:16:50;;;;;;;11.38;2.33;;;;;;;;;;5023272;28;20084;-76
2022/02/20 06:19:16;;;;;;;11.30;1.88;;;;;;;;;;5015371;28;20025;-75
2022/02/20 06:21:42;;;;;;;7.45;1.92;;;;;;;;;;5013277;28;20102;-76
2022/02/20 06:24:08;;;;;;;7.13;2.30;;;;;;;;;;5032398;28;20512;-75
2022/02/20 06:26:34;;;;;;;10.07;2.00;;;;;;;;;;5028203;28;20094;-76
2022/02/20 06:29:00;;;;;;;8.65;2.38;;;;;;;;;;5032821;28;20048;-76
2022/02/20 06:31:26;;;;;;;8.23;2.45;;;;;;;;;;5013244;28;20065;-75
2022/02/20 06:33:52;;;;;;;9.57;2.55;;;;;;;;;;5013683;28;20497;-75
2022/02/20 06:36:19;;;;;;;7.50;2.10;;;;;;;;;;5014325;28;20026;-76
2022/02/20 06:38:45;;;;;;;10.70;2.50;;;;;;;;;;5032143;28;20100;-76
2022/02/20 06:41:11;;;;;;;5.68;2.05;;;;;;;;;;5032576;28;20040;-75
2022/02/20 06:43:38;;;;;;;7.65;2.03;;;;;;;;;;5014715;28;20065;-76
2022/02/20 06:46:05;;;;;;;9.38;2.40;;;;;;;;;;5029868;28;20122;-76
2022/02/20 06:48:31;;;;;;;6.25;1.70;;;;;;;;;;5013862;28;20029;-76
2022/02/20 06:50:57;;;;;;;6.50;2.10;;;;;;;;;;5029790;28;20401;-76
2022/02/20 06:53:23;;;;;;;9.50;2.15;;;;;;;;;;5013176;28;20481;-76
2022/02/20 06:55:49;;;;;;;6.78;1.83;;;;;;;;;;5007573;28;20031;-76
2022/02/20 06:58:15;;;;;;;8.45;2.13;;;;;;;;;;5023508;28;20029;-76
2022/02/20 07:00:42;;;;;;;6.22;2.60;;;;;;;;;;5010625;28;20026;-76
2022/02/20 07:03:08;;;;;;;6.40;1.63;;;;;;;;;;5012253;28;20061;-76
2022/02/20 07:05:34;;;;;;;10.60;2.28;;;;;;;;;;5020175;28;20516;-76
2022/02/20 07:08:00;;;;;;;7.00;1.75;;;;;;;;;;5032107;28;20044;-76
2022/02/20 07:10:27;;;;;;;8.13;1.95;;;;;;;;;;5032063;28;20017;-76
2022/02/20 07:12:53;;;;;;;8.07;1.80;;;;;;;;;;5013668;28;20038;-76
2022/02/20 07:15:19;;;;;;;6.13;1.85;;;;;;;;;;5014097;28;20098;-76
2022/02/20 07:17:45;;;;;;;6.07;1.58;;;;;;;;;;5014542;28;20394;-76
2022/02/20 07:20:11;;;;;;;5.93;1.35;;;;;;;;;;5030107;28;20032;-76
2022/02/20 07:22:38;;;;;;;6.55;1.90;;;;;;;;;;5031298;28;20057;-76
2022/02/20 07:25:05;;;;;;;6.20;1.88;;;;;;;;;;5008529;28;20048;-76
2022/02/20 07:27:41;;;;;;;6.25;1.58;;;;;;;;;;5012172;28;20026;-76
2022/02/20 07:30:07;;;;;;;3.50;1.30;;;;;;;;;;5010826;28;20030;-76
2022/02/20 07:32:34;;;;;;;6.75;2.03;;;;;;;;;;5012937;28;20025;-76
2022/02/20 07:35:00;;;;;;;5.72;1.63;;;;;;;;;;5010601;28;20076;-76
2022/02/20 07:37:28;;;;;;;7.47;1.80;;;;;;;;;;5018767;28;20018;-76
2022/02/20 07:39:54;;;;;;;4.95;1.50;;;;;;;;;;5011674;28;20478;-76
2022/02/20 07:42:20;;;;;;;4.53;1.75;;;;;;;;;;5011956;28;20030;-78
2022/02/20 07:44:46;;;;;;;4.18;1.48;;;;;;;;;;5012505;28;20025;-77
2022/02/20 07:47:12;;;;;;;4.57;1.48;;;;;;;;;;5011869;28;20455;-78
2022/02/20 07:49:38;;;;;;;6.53;1.80;;;;;;;;;;5011245;28;20068;-77
2022/02/20 07:52:05;;;;;;;5.85;1.58;;;;;;;;;;5010483;28;20030;-77
2022/02/20 07:54:31;;;;;;;4.35;1.08;;;;;;;;;;5014826;28;20060;-77
2022/02/20 07:56:58;;;;;;;5.65;1.60;;;;;;;;;;5018395;28;20026;-78
2022/02/20 07:59:25;;;;;;;5.05;1.95;;;;;;;;;;5031237;28;20025;-77
2022/02/20 08:01:51;;;;;;;3.97;1.55;;;;;;;;;;5022175;28;20053;-78
2022/02/20 08:04:17;;;;;;;5.30;1.45;;;;;;;;;;5011870;28;20080;-78
2022/02/20 08:06:43;;;;;;;6.22;1.80;;;;;;;;;;5019188;28;20116;-79
2022/02/20 08:09:09;;;;;;;5.97;1.60;;;;;;;;;;5016939;28;20504;-77
2022/02/20 08:11:35;;;;;;;6.57;1.77;;;;;;;;;;5022094;28;20045;-77
2022/02/20 08:14:02;;;;;;;6.40;1.75;;;;;;;;;;5027549;28;20044;-77
2022/02/20 08:16:28;;;;;;;6.50;1.60;;;;;;;;;;5014335;28;20460;-77
2022/02/20 08:18:54;;;;;;;5.78;1.50;;;;;;;;;;5014098;28;20025;-77
2022/02/20 08:21:20;;;;;;;5.70;1.73;;;;;;;;;;5028472;28;20105;-78
2022/02/20 08:23:46;;;;;;;7.57;2.25;;;;;;;;;;5026469;28;20113;-79
2022/02/20 08:26:12;;;;;;;6.43;1.77;;;;;;;;;;5024510;28;20025;-78
2022/02/20 08:28:38;;;;;;;7.80;2.25;;;;;;;;;;5035177;28;20038;-79
2022/02/20 08:31:04;;;;;;;6.82;2.05;;;;;;;;;;5010611;28;20100;-77
2022/02/20 08:33:30;;;;;;;5.10;1.65;;;;;;;;;;5020687;28;20025;-77
2022/02/20 08:35:57;;;;;;;7.68;1.98;;;;;;;;;;5022745;28;20393;-77
2022/02/20 08:38:23;;;;;;;4.38;1.58;;;;;;;;;;5022967;28;20048;-77
2022/02/20 08:40:49;;;;;;;5.85;1.70;;;;;;;;;;5022495;28;20033;-77
2022/02/20 08:43:16;;;;;;;6.32;2.30;;;;;;;;;;5007678;28;20500;-77
2022/02/20 08:45:43;;;;;;;7.50;2.28;;;;;;;;;;5022736;28;20034;-77
2022/02/20 08:48:10;;;;;;;11.55;3.13;;;;;;;;;;5023464;28;20025;-77
2022/02/20 08:50:36;;;;;;;16.33;3.08;;;;;;;;;;5023207;28;20429;-77
2022/02/20 08:53:02;;;;;;;15.18;3.10;;;;;;;;;;5022789;28;20492;-77
2022/02/20 08:55:28;;;;;;;13.75;3.50;;;;;;;;;;5024082;28;20434;-77
2022/02/20 08:57:54;;;;;;;17.50;4.18;;;;;;;;;;5018950;28;20029;-76
2022/02/20 09:00:20;;;;;;;14.25;4.13;;;;;;;;;;5034563;28;20021;-77
2022/02/20 09:02:46;;;;;;;15.63;4.55;;;;;;;;;;5026189;28;20041;-78
2022/02/20 09:05:13;;;;;;;15.55;3.67;;;;;;;;;;5028528;28;20057;-77
2022/02/20 09:07:39;;;;;;;18.35;5.70;;;;;;;;;;5034655;28;20072;-79
2022/02/20 09:10:08;;;;;;;19.30;7.20;;;;;;;;;;5015761;28;20493;-78
2022/02/20 09:12:34;;;;;;;17.15;6.20;;;;;;;;;;5009505;28;20029;-77
2022/02/20 09:15:00;;;;;;;20.85;6.63;;;;;;;;;;5028239;28;20057;-77
2022/02/20 09:17:26;;;;;;;20.90;6.43;;;;;;;;;;5033766;28;20060;-77
2022/02/20 09:19:52;;;;;;;18.60;5.93;;;;;;;;;;5022847;28;20033;-77
2022/02/20 09:22:18;;;;;;;16.63;6.15;;;;;;;;;;5030473;28;20038;-78
2022/02/20 09:24:44;;;;;;;16.02;5.88;;;;;;;;;;5015183;28;20029;-76
2022/02/20 09:27:10;;;;;;;16.27;5.45;;;;;;;;;;5013560;28;20036;-76
2022/02/20 09:29:36;;;;;;;18.20;5.80;;;;;;;;;;5033499;28;20068;-76
2022/02/20 09:32:02;;;;;;;17.90;4.47;;;;;;;;;;5029103;28;20116;-77
2022/02/20 09:34:29;;;;;;;14.13;4.97;;;;;;;;;;5015770;28;20110;-77
2022/02/20 09:36:55;;;;;;;17.30;6.10;;;;;;;;;;5016797;28;20022;-77
2022/02/20 09:39:21;;;;;;;15.35;4.90;;;;;;;;;;4996875;28;20418;-77
2022/02/20 09:41:47;;;;;;;17.40;4.65;;;;;;;;;;5021842;28;20025;-78
2022/02/20 09:44:13;;;;;;;14.57;4.55;;;;;;;;;;5015421;28;20041;-77
2022/02/20 09:46:43;;;;;;;15.68;4.63;;;;;;;;;;5015853;28;20021;-78
2022/02/20 09:49:09;;;;;;;16.35;4.93;;;;;;;;;;5015913;28;20041;-76
2022/02/20 09:51:36;;;;;;;16.23;5.13;;;;;;;;;;5032912;28;20057;-76
2022/02/20 09:54:02;;;;;;;16.55;4.93;;;;;;;;;;5010723;28;20557;-77
2022/02/20 09:56:28;;;;;;;17.95;4.43;;;;;;;;;;5013658;28;20154;-77
2022/02/20 09:58:54;;;;;;;17.27;4.80;;;;;;;;;;5028262;28;20401;-76
2022/02/20 10:01:20;;;;;;;16.55;4.82;;;;;;;;;;5032850;28;20063;-76
2022/02/20 10:03:47;;;;;;;15.25;3.80;;;;;;;;;;5033069;28;20037;-77
2022/02/20 10:06:14;;;;;;;20.42;5.80;;;;;;;;;;5032413;28;20083;-74
2022/02/20 10:08:44;;;;;;;17.73;5.05;;;;;;;;;;5014996;28;20033;-78
2022/02/20 10:11:13;;;;;;;14.13;4.40;;;;;;;;;;5015941;28;20037;-76
2022/02/20 10:13:39;;;;;;;15.38;4.90;;;;;;;;;;5025240;28;20033;-76
2022/02/20 10:16:18;;;;;;;18.38;4.80;;;;;;;;;;5018892;28;20437;-75
2022/02/20 10:18:46;;;;;;;18.77;5.82;;;;;;;;;;4996637;28;20049;-75
2022/02/20 10:21:16;;;;;;;16.15;5.30;;;;;;;;;;5017895;28;20183;-77
2022/02/20 10:23:43;;;;;;;17.52;6.15;;;;;;;;;;5005178;28;20095;-76
2022/02/20 10:26:18;;;;;;;18.48;5.82;;;;;;;;;;5010195;28;20064;-75
2022/02/20 10:29:02;;;;;;;17.85;6.25;;;;;;;;;;5034720;28;20026;-78
2022/02/20 10:31:41;;;;;;;20.40;5.80;;;;;;;;;;5015277;28;20033;-77
2022/02/20 10:34:07;;;;;;;14.07;5.72;;;;;;;;;;5034423;28;20434;-78
2022/02/20 10:36:52;;;;;;;23.15;6.18;;;;;;;;;;5016602;28;20103;-79
2022/02/20 10:39:21;;;;;;;19.42;5.85;;;;;;;;;;5032922;28;20025;-77
2022/02/20 10:41:48;;;;;;;24.83;6.78;;;;;;;;;;5032478;28;20026;-78
2022/02/20 10:44:14;;;;;;;21.90;6.20;;;;;;;;;;5023370;28;20033;-77
2022/02/20 10:46:40;;;;;;;19.33;6.00;;;;;;;;;;5024153;28;20426;-78
2022/02/20 10:49:06;;;;;;;26.15;6.55;;;;;;;;;;5018453;28;20370;-76
2022/02/20 10:51:39;;;;;;;21.38;6.47;;;;;;;;;;5033812;28;20485;-77
2022/02/20 10:54:05;;;;;;;24.65;6.57;;;;;;;;;;5032508;28;20025;-77
2022/02/20 10:56:38;;;;;;;18.45;6.10;;;;;;;;;;5032436;28;20030;-76
2022/02/20 10:59:04;;;;;;;26.52;6.07;;;;;;;;;;5013825;28;20542;-77
2022/02/20 11:01:30;;;;;;;22.83;6.47;;;;;;;;;;5013581;28;20026;-76
2022/02/20 11:04:10;;;;;;;16.13;4.47;;;;;;;;;;5032116;28;20034;-77
2022/02/20 11:06:36;;;;;;;18.85;6.00;;;;;;;;;;5031850;28;20481;-76
2022/02/20 11:09:02;;;;;;;23.42;6.55;;;;;;;;;;5005436;28;20121;-78
2022/02/20 11:11:38;;;;;;;18.23;5.60;;;;;;;;;;5018746;28;20401;-77
2022/02/20 11:14:24;;;;;;;14.77;4.90;;;;;;;;;;5032127;28;20053;-78
2022/02/20 11:16:51;;;;;;;20.05;5.63;;;;;;;;;;5018217;28;20417;-81
2022/02/20 11:19:24;;;;;;;20.55;5.25;;;;;;;;;;5013627;28;20034;-78
2022/02/20 11:21:55;;;;;;;17.60;5.28;;;;;;;;;;5013622;28;20030;-77
2022/02/20 11:24:21;;;;;;;17.90;5.78;;;;;;;;;;5031744;28;20072;-77
2022/02/20 11:26:47;;;;;;;21.50;5.32;;;;;;;;;;5010206;28;20034;-77
2022/02/20 11:29:13;;;;;;;16.23;5.85;;;;;;;;;;5031583;28;20423;-78
2022/02/20 11:31:40;;;;;;;14.98;5.40;;;;;;;;;;5013318;28;20116;-77
2022/02/20 11:34:07;;;;;;;19.20;5.35;;;;;;;;;;5031028;28;20026;-77
2022/02/20 11:36:33;;;;;;;17.95;5.47;;;;;;;;;;5031728;28;20561;-77
2022/02/20 11:39:04;;;;;;;18.95;6.78;;;;;;;;;;5026293;28;20494;-78
2022/02/20 11:41:30;;;;;;;15.88;5.28;;;;;;;;;;5025119;28;20029;-78
2022/02/20 11:44:10;;;;;;;21.45;6.22;;;;;;;;;;5013005;28;20041;-77
2022/02/20 11:46:46;;;;;;;20.90;4.75;;;;;;;;;;5029479;28;20093;-78
2022/02/20 11:49:17;;;;;;;18.10;5.10;;;;;;;;;;5016218;28;20512;-76
2022/02/20 11:51:57;;;;;;;17.02;5.25;;;;;;;;;;5024328;28;20025;-76
2022/02/20 11:54:23;;;;;;;14.98;4.78;;;;;;;;;;5012986;28;20026;-79
2022/02/20 11:57:08;;;;;;;18.80;5.25;;;;;;;;;;5012872;28;20025;-77
2022/02/20 11:59:34;;;;;;;19.25;5.40;;;;;;;;;;5012246;28;20048;-76
2022/02/20 12:02:13;;;;;;;21.58;5.32;;;;;;;;;;5012111;28;20038;-79
2022/02/20 12:04:51;;;;;;;14.88;5.15;;;;;;;;;;5017644;28;20061;-77
2022/02/20 12:07:46;;;;;;;22.58;5.35;;;;;;;;;;5000748;28;20025;-78
2022/02/20 12:10:23;;;;;;;21.90;5.15;;;;;;;;;;5011312;28;20045;-76
2022/02/20 12:13:10;;;;;;;20.70;5.03;;;;;;;;;;5011060;28;20025;-77
2022/02/20 12:15:40;;;;;;;16.83;5.80;;;;;;;;;;4996328;28;20029;-76
2022/02/20 12:18:12;;;;;;;18.33;5.13;;;;;;;;;;5020113;28;20030;-77
2022/02/20 12:20:47;;;;;;;19.52;5.07;;;;;;;;;;5021477;28;20017;-77
2022/02/20 12:23:36;;;;;;;16.55;5.30;;;;;;;;;;5027724;28;20233;-77
2022/02/20 12:26:07;;;;;;;27.15;7.13;;;;;;;;;;5020495;28;20049;-77
2022/02/20 12:28:40;;;;;;;18.42;5.68;;;;;;;;;;5018029;28;20508;-77
2022/02/20 12:31:15;;;;;;;17.95;5.88;;;;;;;;;;5017689;28;20022;-75
2022/02/20 12:33:48;;;;;;;18.55;4.95;;;;;;;;;;5034616;28;20021;-77
2022/02/20 12:36:23;;;;;;;18.63;4.90;;;;;;;;;;5014491;28;20124;-76
2022/02/20 12:38:53;;;;;;;20.92;4.95;;;;;;;;;;5021785;28;20025;-77
2022/02/20 12:41:20;;;;;;;17.70;5.00;;;;;;;;;;4994742;28;20045;-76
2022/02/20 12:43:50;;;;;;;14.38;4.38;;;;;;;;;;5022771;28;20489;-78
2022/02/20 12:46:16;;;;;;;18.38;4.13;;;;;;;;;;5014776;28;20029;-76
2022/02/20 12:48:42;;;;;;;19.67;5.40;;;;;;;;;;5015500;28;20064;-76
2022/02/20 12:51:10;;;;;;;16.20;4.78;;;;;;;;;;5034797;28;20061;-79
2022/02/20 12:53:36;;;;;;;18.13;4.85;;;;;;;;;;5028100;28;20083;-77
2022/02/20 12:56:06;;;;;;;17.75;4.78;;;;;;;;;;5028015;28;20028;-78
2022/02/20 12:58:46;;;;;;;17.00;4.65;;;;;;;;;;5028871;28;20042;-78
2022/02/20 13:01:12;;;;;;;21.00;4.97;;;;;;;;;;5017382;28;20434;-77
2022/02/20 13:03:38;;;;;;;18.85;4.50;;;;;;;;;;5023391;28;20119;-76
2022/02/20 13:06:04;;;;;;;19.23;4.63;;;;;;;;;;5034029;28;20057;-76
2022/02/20 13:08:32;;;;;;;19.20;5.63;;;;;;;;;;5021377;28;20029;-77
2022/02/20 13:11:00;;;;;;;14.35;4.07;;;;;;;;;;5013915;28;20022;-77
2022/02/20 13:13:27;;;;;;;21.33;4.70;;;;;;;;;;5032427;28;20123;-76
2022/02/20 13:15:55;;;;;;;15.65;4.07;;;;;;;;;;5034327;28;20529;-77
2022/02/20 13:18:22;;;;;;;14.88;4.38;;;;;;;;;;5034262;28;20040;-77
2022/02/20 13:20:48;;;;;;;22.00;5.20;;;;;;;;;;5016432;28;20030;-77
2022/02/20 13:23:22;;;;;;;17.83;5.38;;;;;;;;;;5034048;28;20479;-77
2022/02/20 13:25:50;;;;;;;18.77;4.30;;;;;;;;;;5034115;28;20103;-77
2022/02/20 13:28:18;;;;;;;17.95;3.70;;;;;;;;;;5016285;28;20022;-76
2022/02/20 13:30:44;;;;;;;16.90;4.47;;;;;;;;;;5034026;28;20036;-77
2022/02/20 13:33:11;;;;;;;16.05;4.25;;;;;;;;;;5033952;28;20032;-77
2022/02/20 13:35:38;;;;;;;18.65;4.35;;;;;;;;;;5015991;28;20037;-77
2022/02/20 13:38:05;;;;;;;18.48;4.75;;;;;;;;;;5016088;28;20032;-77
2022/02/20 13:40:40;;;;;;;18.83;4.45;;;;;;;;;;5015809;28;20090;-77
2022/02/20 13:43:09;;;;;;;16.58;4.68;;;;;;;;;;5031225;28;20393;-76
2022/02/20 13:45:39;;;;;;;18.23;4.60;;;;;;;;;;5032002;28;20031;-77
2022/02/20 13:48:23;;;;;;;16.52;5.13;;;;;;;;;;5013981;28;20508;-77
2022/02/20 13:50:50;;;;;;;18.23;4.57;;;;;;;;;;5031789;28;20026;-77
2022/02/20 13:53:16;;;;;;;18.75;4.25;;;;;;;;;;5033505;28;20033;-76
2022/02/20 13:55:52;;;;;;;17.00;3.85;;;;;;;;;;5017561;28;20497;-77
2022/02/20 13:58:19;;;;;;;14.60;4.82;;;;;;;;;;5015731;28;20124;-77
2022/02/20 14:00:54;;;;;;;16.35;4.20;;;;;;;;;;5015938;28;20424;-77
2022/02/20 14:03:20;;;;;;;13.48;3.90;;;;;;;;;;5014722;28;20038;-76
2022/02/20 14:05:46;;;;;;;16.75;4.93;;;;;;;;;;5032817;28;20021;-77
2022/02/20 14:08:17;;;;;;;16.38;4.05;;;;;;;;;;5031531;28;20397;-78
2022/02/20 14:10:57;;;;;;;16.35;4.03;;;;;;;;;;5031402;28;20014;-78
2022/02/20 14:13:23;;;;;;;17.23;4.70;;;;;;;;;;5015486;28;20500;-77
2022/02/20 14:15:59;;;;;;;14.75;4.35;;;;;;;;;;5033261;28;20082;-78
2022/02/20 14:18:25;;;;;;;19.85;4.32;;;;;;;;;;5015613;28;20374;-77
2022/02/20 14:20:53;;;;;;;16.77;4.15;;;;;;;;;;5032989;28;20143;-77
2022/02/20 14:23:19;;;;;;;16.75;4.68;;;;;;;;;;5029808;28;20409;-78
2022/02/20 14:25:55;;;;;;;16.17;4.32;;;;;;;;;;5032930;28;20497;-77
2022/02/20 14:28:26;;;;;;;15.02;4.78;;;;;;;;;;5021636;28;20033;-77
2022/02/20 14:31:05;;;;;;;12.88;3.95;;;;;;;;;;5014013;28;20068;-78
2022/02/20 14:33:34;;;;;;;18.88;4.35;;;;;;;;;;5019364;28;20501;-77
2022/02/20 14:36:01;;;;;;;16.17;4.68;;;;;;;;;;5020147;28;20022;-76